This is the latest recevied weather packets stored in our database for station/object K6LCM-13. If no packets are shown the sender has not sent any weather packets the latest 10 day(s).
| Time | Temp. | Humidity | Pressure | Rain* | Wind** | Luminosity | Snow |
|---|---|---|---|---|---|---|---|
| 1777408116 | 17.78° C | 74% | 1017.3 hPa | 0 mm | - | - | - |
| 1777407353 | 17.22° C | 73% | 1017.4 hPa | 0 mm | - | - | - |
| 1777406812 | 17.22° C | 75% | 1017.5 hPa | 0 mm | - | - | - |
| 1777405732 | 16.67° C | 74% | 1017.7 hPa | 0 mm | - | - | - |
| 1777405192 | 17.22° C | 70% | 1017.8 hPa | 0 mm | - | - | - |
| 1777404112 | 17.22° C | 70% | 1018 hPa | 0 mm | - | - | - |
| 1777403032 | 17.78° C | 68% | 1018.1 hPa | 0 mm | - | - | - |
| 1777402492 | 17.22° C | 69% | 1018.2 hPa | 0 mm | - | - | - |
| 1777401952 | 16.67° C | 70% | 1018.2 hPa | 0 mm | - | - | - |
| 1777401412 | 16.67° C | 70% | 1018.2 hPa | 0 mm | - | - | - |
| 1777400332 | 16.67° C | 71% | 1018.4 hPa | 0 mm | - | - | - |
| 1777399792 | 17.78° C | 68% | 1018.4 hPa | 0 mm | - | - | - |
| 1777399252 | 17.78° C | 65% | 1018.3 hPa | 0 mm | - | - | - |
| 1777398712 | 18.33° C | 64% | 1018.4 hPa | 0 mm | - | - | - |
| 1777398172 | 18.33° C | 66% | 1018.3 hPa | 0 mm | - | - | - |
| 1777397632 | 17.78° C | 67% | 1018.3 hPa | 0 mm | - | - | - |
| 1777396952 | 17.78° C | 64% | 1018.3 hPa | 0 mm | - | - | - |
| 1777396277 | 17.78° C | 65% | 1018.3 hPa | 0 mm | - | - | - |
| 1777395197 | 17.78° C | 67% | 1018.4 hPa | 0 mm | - | - | - |
| 1777394658 | 17.78° C | 66% | 1018.5 hPa | 0 mm | - | - | - |
| 1777394117 | 17.78° C | 67% | 1018.6 hPa | 0 mm | - | - | - |
| 1777393577 | 17.78° C | 68% | 1018.7 hPa | 0 mm | - | - | - |
| 1777393037 | 17.22° C | 69% | 1018.7 hPa | 0 mm | - | - | - |
| 1777392497 | 17.22° C | 70% | 1018.7 hPa | 0 mm | - | - | - |
| 1777391957 | 16.67° C | 72% | 1018.5 hPa | 0 mm | - | - | - |
* Rain latest hour (hover to see other rain measurements)
** Current wind speed in m/s (hover to see current wind gust speed)